Direkt zum Inhalt
WGM

Carmen
Voicu-Jagodzinsky

NationROU
Elo2202
DWZ2218
2. Frauenbundesliga West
SV Hemer 1932
ELO: 2202
Rd Br F FIDE-ID Spieler Mannschaft Rn Termin G Elo Nat Tit Res
1 2 W 1201735 Mariana-Camelia Plass SV Sterkrade-Nord 2 2023-10-14 W 2019 ROU WFM ½
2 2 S 12939560 Marina Limbourg SV Mülheim-Nord 5 2023-10-15 W 2023 GER 1
4 1 S 24657514 Nicole Manusina SK Lehrte 2 2024-01-20 W 2027 GER +
5 1 W 24614890 Germaine Helene Kickert Delmenhorster SK 2 2024-01-21 W 1939 GER 1
NRW-Klasse 1
SV Hemer 1932
ELO: 2202
Rd Br F FIDE-ID Spieler Mannschaft Rn Termin G Elo Nat Tit Res
1 1 S 4670035 Pascal Werrn SK Sodingen / Castrop 1 2023-09-10 M 2131 GER 0
4 2 W 4607457 Helmut Quelle Herforder SV KS 2 2023-12-03 M 2049 GER +
5 1 W 4603494 Jens Lütke SV Kamen 2 2024-02-18 M 2162 GER FM +
Frauenbundesliga
SV Hemer 1932
ELO: 2297
Rd Br F FIDE-ID Spieler Mannschaft Rn Termin G Elo Nat Tit Res
3 3 W 4139690 Julia Movsesian Rodewischer Schachmiezen 6 2022-11-12 W 2261 CZE WGM ½
4 3 S 13904108 Olga Hincu SV Weißblau Allianz Leipzig 4 2022-11-13 W 2116 MDA WFM 0
5 2 W 24606812 Sarah Papp Hamburger SK 6 2023-02-18 W 2293 GER WGM ½
6 2 S 14609215 Laura Unuk TuRa Harksheide 2 2023-02-19 W 2296 SLO IM 0
7 3 W 937266 Jovana Rapport Schachfreunde Deizisau 4 2023-03-11 W 2327 ROU WGM ½
8 2 W 4641833 Elisabeth Pähtz OSG Baden-Baden 6 2023-03-12 W 2474 GER GM 0
9 1 S 14101181 Inna Gaponenko SG Solingen 1 2023-04-29 W 2338 UKR IM 0
10 1 W 12942154 Ha Thanh Nguyen SV Medizin Erfurt 3 2023-04-30 W 1976 GER 1
11 1 S 1154613 Oliwia Kiolbasa SC 1957 Bad Königshofen 4 2023-05-01 W 2422 POL IM ½
NRW-Klasse 1
SV Hemer 1932
ELO: 2297
Rd Br F FIDE-ID Spieler Mannschaft Rn Termin G Elo Nat Tit Res
9 1 W 4650727 Thomas Nordsieck Herforder SV KS 2 2023-05-21 M 2334 GER FM 1
Frauenbundesliga
SV Hemer 1932
ELO: 2258
Rd Br F FIDE-ID Spieler Mannschaft Rn Termin G Elo Nat Tit Res
1 2 S 777765 Zsòka Gaàl Hamburger SK 4 2021-11-27 W 2336 HUN WIM 1
2 2 W 14546264 Anamarija Radikovic TuRa Harksheide 4 2021-11-28 W 2124 CRO WFM ½
4 2 S 14101181 Inna Gaponenko Schachfreunde Deizisau 3 2022-05-27 W 2332 UKR IM 0
5 2 S 1131044 Klaudia Kulon SV Weißblau Allianz Leipzig 2 2022-03-19 W 2319 POL IM ½
6 2 W 11601876 Laura Rogule SG 1871 Löberitz 2 2022-03-20 W 2317 LAT WGM ½
7 1 S 13604040 Meri Arabidze SK Schwäbisch Hall 5 2022-04-09 W 2430 GEO IM 0
8 1 W 14101602 Iulija Osmak SC Bad Königshofen 1957 3 2022-04-10 W 2434 UKR IM 1
9 2 W 1621629 Katharina Newrkla SK Lehrte 2 2022-05-25 W 2232 AUT WIM 0
10 2 S 4690745 Melanie Lubbe Rodewischer Schachmiezen 4 2022-05-28 W 2308 GER WGM 0
2. Frauenbundesliga West
SV Hemer 1932
ELO: 2273
Rd Br F FIDE-ID Spieler Mannschaft Rn Termin G Elo Nat Tit Res
1 2 S 20654383 Anaëlle Afraoui SK Langen 2 2019-09-14 W 2106 FRA WFM +
2 2 W 1201735 Mariana-Camelia Plass SV Mülheim-Nord 2 2019-09-15 W 2035 ROU WFM 1
3 2 W 1203584 Ileana Rogozenco Hamburger SK II 4 2019-12-14 W 2056 ROU WFM ½
4 2 S 12909637 Jessica Wallat Delmenhorster SK 5 2019-12-15 W 1670 GER 1
5 2 S 1005588 Kristianne Tempelman Schachclub Steinfurt 1996 4 2020-02-02 W 1936 NED 1
6 2 S 4615352 Elisa Silz SK Doppelbauer Turm Kiel 2 2020-02-15 W 2061 GER ½
7 2 W 16267419 Irina Bräutigam Lübecker SV 2 2020-02-16 W 2062 GER 1